LYSP weather

Rudine airfield
Smederevska palanka, Zlatibor, Serbia

Public forecast

Using degrees Celsius for public forecast. Weather courtesy of forecast.io.

METAR (pilot weather report)

Closest report is Morava Airport, 35.8 nm (66.3 km) SSW. Retrieved 2019/06/24 16:30 UTC (8 minutes ago):

LYKV 241630Z VRB07KT 9999 SCT037 26/19 Q1017 NOSIG

TAF (pilot weather forecast)

Closest forecast is Morava Airport, 35.8 nm (66.3 km) SSW. Retrieved 2019/06/24 12:00 UTC (5 hours ago):

TAF LYKV 241100Z 2412/2512 35005KT 9999 BKN033 TX27/2413Z TN17/2503Z TEMPO 2414/2419 VRB15KT 4000 TSRA SCT027CB BKN030 TEMPO 2502/2505 3000 BR BKN010